Frey Ranch - Fallon, Nevada Weather observations

Data are for observation ending at time listed.
 Day   Time    Ave.   Ave.  Ave.  Vector   Max.   Stn.    Total    Solar   Ave.  
  of    of     Air    Rel.  Wind   Wind    Wind   Baro.  Precip.   Rad.    Soil  
Year   Day     Temp.  Hum.  Speed  Dir.    Gust   Pres.                    Temp. 
2017   (PST)    F      %     mph   deg.    mph     mb.     in.     W/m2     F   
------------------------------------------------------------------------------
  16   18:00   32.0    75    3.5   309      5.1   999.0    0.00       0    999.0
  16   18:10   31.7    75    3.8   311      5.9   999.0    0.00       0    999.0
  16   18:20   31.5    76    2.2   317      4.7   999.0    0.00       0    999.0
  16   18:30   31.3    77    2.9   321      5.1   999.0    0.00       0    999.0
  16   18:40   31.1    76    2.8   326      5.1   999.0    0.00       0    999.0
  16   18:50   31.1    76    2.6   334      4.6   999.0    0.00       0    999.0
  16   19:00   31.0    75    2.3   340      4.9   999.0    0.00       0    999.0
  16   19:10   30.9    76    2.4   337      3.5   999.0    0.00       0    999.0
  16   19:20   30.7    77    1.9   345      2.8   999.0    0.00       0    999.0
  16   19:30   30.6    78    1.8   335      3.0   999.0    0.00       0    999.0
  16   19:40   30.8    78    2.1   343      2.7   999.0    0.00       0    999.0
  16   19:50   30.9    78    1.6   342      2.8   999.0    0.00       0    999.0
  16   20:00   31.0    76    1.7   340      3.4   999.0    0.00       0    999.0
  16   20:10   31.1    76    1.9   358      3.9   999.0    0.00       0    999.0
  16   20:20   31.1    75    1.5    13      3.9   999.0    0.00       0    999.0
  16   20:30   31.1    76    3.5    77      5.4   999.0    0.00       0    999.0
  16   20:40   31.1    75    2.5    72      4.2   999.0    0.00       0    999.0
  16   20:50   31.0    75    2.5    80      4.1   999.0    0.00       0    999.0
  16   21:00   30.9    77    2.8    85      4.7   999.0    0.00       0    999.0
  16   21:10   30.9    77    3.6    91      5.1   999.0    0.00       0    999.0
  16   21:20   30.8    76    2.7    75      3.8   999.0    0.00       0    999.0
  16   21:30   30.8    77    1.7    79      2.5   999.0    0.00       0    999.0
  16   21:40   30.8    78    1.9    94      3.1   999.0    0.00       0    999.0
  16   21:50   30.8    79    2.7    94      4.1   999.0    0.00       0    999.0
  16   22:00   30.7    80    2.5   120      3.4   999.0    0.00       0    999.0
  16   22:10   30.5    82    3.1   130      4.9   999.0    0.00       0    999.0
  16   22:20   30.5    83    4.1   144      5.0   999.0    0.00       0    999.0
  16   22:30   30.6    83    4.1   162      5.9   999.0    0.00       0    999.0
  16   22:40   30.7    82    3.5   188      4.8   999.0    0.00       0    999.0
  16   22:50   30.6    82    3.6   193      5.2   999.0    0.00       0    999.0
  16   23:00   30.6    82    2.7   188      3.9   999.0    0.00       0    999.0
  16   23:10   30.6    81    2.8   166      3.9   999.0    0.00       0    999.0
  16   23:20   30.7    79    2.1   192      3.3   999.0    0.00       0    999.0
  16   23:30   30.8    76    2.7   180      5.0   999.0    0.00       0    999.0
  16   23:40   30.8    76    2.9   204      4.9   999.0    0.00       0    999.0
  16   23:50   30.8    72    3.3   200      6.0   999.0    0.00       0    999.0
  17    0:00   30.8    70    2.9   194      4.5   999.0    0.00       0    999.0
  17    0:10   30.8    69    2.7   112      6.1   999.0    0.00       0    999.0
  17    0:20   31.0    69    1.0   143      1.9   999.0    0.00       0    999.0
  17    0:30   30.9    69    2.2   311      4.5   999.0    0.00       0    999.0
  17    0:40   30.8    71    2.0   259      5.6   999.0    0.00       0    999.0
  17    0:50   30.6    71    3.3   239      6.9   999.0    0.00       0    999.0
  17    1:00   30.5    69    2.8   215      6.3   999.0    0.00       0    999.0
  17    1:10   30.5    69    2.1    78      5.2   999.0    0.00       0    999.0
  17    1:20   30.5    70    1.9   118      3.3   999.0    0.00       0    999.0
  17    1:30   30.5    70    1.5   216      4.2   999.0    0.00       0    999.0
  17    1:40   30.4    71    2.1   257      4.0   999.0    0.00       0    999.0
  17    1:50   30.4    70    1.5   261      3.5   999.0    0.00       0    999.0
  17    2:00   30.4    70    1.6   320      3.8   999.0    0.00       0    999.0
  17    2:10   30.3    69    1.0    46      3.9   999.0    0.00       0    999.0
  17    2:20   30.3    70    1.5   268      3.5   999.0    0.00       0    999.0
  17    2:30   30.3    70    1.2   311      1.8   999.0    0.00       0    999.0
  17    2:40   30.3    71    1.6   223      4.7   999.0    0.00       0    999.0
  17    2:50   30.0    75    2.6   186      4.9   999.0    0.00       0    999.0
  17    3:00   29.9    73    2.7   195      5.2   999.0    0.00       0    999.0
  17    3:10   29.9    71    1.8   183      4.6   999.0    0.00       0    999.0
  17    3:20   30.0    71    0.5   317      2.0   999.0    0.00       0    999.0
  17    3:30   30.1    72    1.0   155      2.7   999.0    0.00       0    999.0
  17    3:40   29.9    74    2.6   143      4.5   999.0    0.00       0    999.0
  17    3:50   29.7    73    3.2   168      7.2   999.0    0.00       0    999.0
  17    4:00   29.6    73    2.8   203      4.5   999.0    0.00       0    999.0
  17    4:10   29.5    72    2.7   218      5.2   999.0    0.00       0    999.0
  17    4:20   29.6    73    1.8   209      3.6   999.0    0.00       0    999.0
  17    4:30   29.4    74    3.1   197      5.2   999.0    0.00       0    999.0
  17    4:40   29.3    74    3.2   205      5.0   999.0    0.00       0    999.0
  17    4:50   29.3    75    3.4   208      5.2   999.0    0.00       0    999.0
  17    5:00   29.2    75    3.8   227      5.6   999.0    0.00       0    999.0
  17    5:10   29.2    75    4.0   238      6.1   999.0    0.00       0    999.0
  17    5:20   29.2    75    3.0   239      4.7   999.0    0.00       0    999.0
  17    5:30   29.2    74    2.1   200      3.7   999.0    0.00       0    999.0
  17    5:40   29.2    74    3.1   113      5.1   999.0    0.00       0    999.0
  17    5:50   29.2    73    2.5   149      4.9   999.0    0.00       0    999.0
  17    6:00   29.3    72    1.7    80      4.7   999.0    0.00       0    999.0
  17    6:10   29.3    73    2.5    89      4.0   999.0    0.00       0    999.0
  17    6:20   29.3    73    3.8   108      6.3   999.0    0.00       0    999.0
  17    6:30   29.3    73    2.0   150      5.7   999.0    0.00       0    999.0
  17    6:40   29.2    73    3.3   161      7.2   999.0    0.00       0    999.0
  17    6:50   29.2    73    2.7   211      5.8   999.0    0.00       0    999.0
  17    7:00   29.1    75    4.6   156      7.3   999.0    0.00       0    999.0
  17    7:10   28.9    74    3.9   204      8.0   999.0    0.00       1    999.0
  17    7:20   28.8    74    4.3   166      8.0   999.0    0.00       3    999.0
  17    7:30   28.8    75    4.2   154      7.3   999.0    0.00       7    999.0
  17    7:40   28.8    75    4.0   182      6.3   999.0    0.00      14    999.0
  17    7:50   28.6    75    5.6   154      7.9   999.0    0.00      22    999.0
  17    8:00   28.4    75    6.1   150      8.6   999.0    0.00      31    999.0
  17    8:10   28.3    75    6.9   166     10.1   999.0    0.00      43    999.0
  17    8:20   28.1    75    7.0   162      9.9   999.0    0.00      60    999.0
  17    8:30   27.9    74    6.8   144      9.7   999.0    0.00      84    999.0
  17    8:40   27.9    75    5.3   133      9.8   999.0    0.00      88    999.0
  17    8:50   28.1    75    7.9   141     10.4   999.0    0.00     108    999.0
  17    9:00   28.0    74    6.0   136      9.4   999.0    0.00     112    999.0
  17    9:10   28.2    75    7.0   136     10.7   999.0    0.00     153    999.0
  17    9:20   28.5    74    6.3   150     13.0   999.0    0.00     176    999.0
  17    9:30   28.4    74    6.4   149     12.8   999.0    0.00     195    999.0
  17    9:40   28.3    74    7.5   137     10.8   999.0    0.00     204    999.0
  17    9:50   28.3    74    6.7   136     10.5   999.0    0.00     209    999.0
  17   10:00   28.5    75    8.0   119     12.2   999.0    0.00     225    999.0
  17   10:10   28.5    75    6.7   123     10.4   999.0    0.00     226    999.0
  17   10:20   28.5    73    5.0   110     10.3   999.0    0.00     279    999.0
  17   10:30   28.8    73    5.4   137      8.7   999.0    0.00     255    999.0
  17   10:40   28.6    74    5.7   120      9.9   999.0    0.00     303    999.0
  17   10:50   29.0    74    6.4   121      9.9   999.0    0.00     335    999.0
  17   11:00   29.3    72    2.7   126      5.6   999.0    0.00     368    999.0
  17   11:10   30.0    72    4.1   153      7.8   999.0    0.00     329    999.0
  17   11:20   29.8    70    2.9   109      8.3   999.0    0.00     268    999.0
  17   11:30   30.1    71    4.1   128      8.5   999.0    0.00     418    999.0
  17   11:40   30.4    71    4.4   112      8.0   999.0    0.00     621    999.0
  17   11:50   30.2    73    6.8   118      9.3   999.0    0.00     483    999.0
  17   12:00   30.6    72    6.5   106     11.5   999.0    0.00     556    999.0
  17   12:10   31.3    70    4.8    94      8.2   999.0    0.00     552    999.0
  17   12:20   31.5    67    2.4   136      4.7   999.0    0.00     283    999.0
  17   12:30   31.6    68    4.2   110      7.8   999.0    0.00     479    999.0
  17   12:40   32.6    66    2.9   107      8.4   999.0    0.00     588    999.0
  17   12:50   33.5    64    2.7   250      5.2   999.0    0.00     486    999.0
  17   13:00   34.1    63    3.1   314      5.8   999.0    0.00     510    999.0
  17   13:10   34.3    63    2.6    62      5.8   999.0    0.00     333    999.0
  17   13:20   33.6    66    5.4   102      9.0   999.0    0.00     261    999.0
  17   13:30   33.6    65    3.2   112      7.2   999.0    0.00     277    999.0
  17   13:40   33.9    65    4.0   140      6.7   999.0    0.00     254    999.0
  17   13:50   34.0    66    4.9   124      7.2   999.0    0.00     295    999.0
  17   14:00   34.1    67    4.2   116      7.9   999.0    0.00     298    999.0
  17   14:10   34.1    66    3.9   110      8.1   999.0    0.00     306    999.0
  17   14:20   34.9    66    5.6   124      8.6   999.0    0.00     543    999.0
  17   14:30   35.4    65    5.0   124     10.2   999.0    0.00     425    999.0
  17   14:40   35.2    63    2.6    82      5.0   999.0    0.00     291    999.0
  17   14:50   35.6    62    2.9   125      6.9   999.0    0.00     207    999.0
  17   15:00   34.7    65    4.5   128      6.8   999.0    0.00     152    999.0
  17   15:10   34.8    67    5.6   124      8.3   999.0    0.00     169    999.0
  17   15:20   34.9    66    5.1   127      7.4   999.0    0.00     168    999.0
  17   15:30   35.2    66    4.7   148      7.2   999.0    0.00     145    999.0
  17   15:40   35.5    66    3.7   145      6.0   999.0    0.00     131    999.0
  17   15:50   35.5    66    3.3   160      7.2   999.0    0.00     114    999.0
  17   16:00   35.3    67    4.2   238      6.8   999.0    0.00     105    155.3
  17   16:10   35.2    66    4.3   273      6.8   999.0    0.00     104    148.6
  17   16:20   35.1    66    4.0   296      6.5   999.0    0.00      89    142.0
  17   16:30   35.0    66    3.3   303      4.9   999.0    0.00      66    137.6
  17   16:40   34.6    68    3.3   302      4.9   999.0    0.00      32    133.6
  17   16:50   33.9    70    2.6   302      3.8   999.0    0.00      12    129.1
  17   17:00   33.3    72    1.0   308      1.8   999.0    0.00       4    127.4
  17   17:10   33.0    73    0.3   316      1.2   999.0    0.00       1    125.5
  17   17:20   32.7    72    0.0   316      0.8   999.0    0.00       0    123.2
  17   17:30   32.5    74    0.0     0      0.0   999.0    0.00       0    121.4
  17   17:40   31.8    76    0.8   317      1.7   999.0    0.00       0    119.6
  17   17:50   31.6    76    0.6   318      1.8   999.0    0.00       0    118.0

Return to Frey Ranch - Fallon, Nevada graphs page.


Western Regional Climate Center,wrcc@dri.edu